Time;durP1;ratioP1;P1;durP2;ratioP2;P2;SDS_P1;SDS_P2;PMS_P1;PMS_P2;Temp;Humidity;BMP_temperature;BMP_pressure;BME280_temperature;BME280_humidity;BME280_pressure;Samples;Min_cycle;Max_cycle;Signal;HPM_P1;HPM_P2
2022/10/01 00:00:55;;;;;;;8.27;6.88;;;11.40;99.90;;;;;;5075964;28;20470;-54
2022/10/01 00:03:23;;;;;;;8.07;7.15;;;11.40;99.90;;;;;;5076913;28;20079;-53
2022/10/01 00:06:24;;;;;;;7.15;6.45;;;11.60;99.90;;;;;;5075650;28;20036;-53
2022/10/01 00:08:50;;;;;;;10.15;7.35;;;11.40;99.90;;;;;;5034802;28;20142;-53
2022/10/01 00:11:20;;;;;;;9.43;7.25;;;11.40;99.90;;;;;;5034836;28;20065;-53
2022/10/01 00:13:46;;;;;;;12.23;7.30;;;11.30;99.90;;;;;;5034795;28;20046;-51
2022/10/01 00:16:16;;;;;;;13.10;7.35;;;11.40;99.90;;;;;;5034590;28;20045;-54
2022/10/01 00:18:44;;;;;;;8.48;7.63;;;11.30;99.90;;;;;;5034761;28;20041;-53
2022/10/01 00:21:13;;;;;;;10.57;7.63;;;11.30;99.90;;;;;;5034754;28;20045;-55
2022/10/01 00:23:39;;;;;;;13.25;7.90;;;11.30;99.90;;;;;;5034595;28;20049;-54
2022/10/01 00:26:17;;;;;;;11.13;8.30;;;11.20;99.90;;;;;;5017879;28;20041;-54
2022/10/01 00:28:44;;;;;;;11.18;8.05;;;11.30;99.90;;;;;;5034499;28;20045;-53
2022/10/01 00:31:10;;;;;;;11.23;8.80;;;11.40;99.90;;;;;;5034372;28;20034;-54
2022/10/01 00:33:38;;;;;;;10.45;8.20;;;11.30;99.90;;;;;;5033870;28;20052;-53
2022/10/01 00:36:05;;;;;;;12.02;8.30;;;11.20;99.90;;;;;;5034380;28;20115;-55
2022/10/01 00:38:31;;;;;;;10.10;8.52;;;11.30;99.90;;;;;;5033755;28;20392;-52
2022/10/01 00:40:57;;;;;;;11.40;9.15;;;11.30;99.90;;;;;;5033338;28;20048;-54
2022/10/01 00:43:28;;;;;;;11.93;9.02;;;11.20;99.90;;;;;;5065620;28;20395;-53
2022/10/01 00:45:59;;;;;;;11.55;9.48;;;11.20;99.90;;;;;;5076257;28;20363;-55
2022/10/01 00:48:28;;;;;;;11.73;8.93;;;11.20;99.90;;;;;;5076240;28;20037;-54
2022/10/01 00:50:55;;;;;;;9.52;8.52;;;11.30;99.90;;;;;;5076121;28;20415;-55
2022/10/01 00:53:21;;;;;;;12.35;9.05;;;11.30;99.90;;;;;;5076074;28;20360;-54
2022/10/01 00:55:54;;;;;;;12.93;9.30;;;11.20;99.90;;;;;;5075742;28;20052;-52
2022/10/01 00:58:21;;;;;;;12.25;9.70;;;11.20;99.90;;;;;;5076087;28;20144;-54
2022/10/01 01:00:48;;;;;;;12.13;9.40;;;11.30;99.90;;;;;;5075956;28;20383;-52
2022/10/01 01:03:14;;;;;;;14.18;9.27;;;11.20;99.90;;;;;;5076034;28;20422;-54
2022/10/01 01:05:40;;;;;;;12.80;10.75;;;11.20;99.90;;;;;;5075890;28;20120;-55
2022/10/01 01:08:07;;;;;;;11.20;9.90;;;11.10;99.90;;;;;;5073982;28;20043;-52
2022/10/01 01:10:48;;;;;;;11.52;9.57;;;11.20;99.90;;;;;;5073941;28;20450;-54
2022/10/01 01:13:40;;;;;;;10.88;9.43;;;11.20;99.90;;;;;;5073548;28;20094;-54
2022/10/01 01:16:18;;;;;;;10.55;9.35;;;11.20;99.90;;;;;;5075663;28;20044;-54
2022/10/01 01:18:51;;;;;;;10.75;9.65;;;11.20;99.90;;;;;;5075686;28;20036;-54
2022/10/01 01:21:23;;;;;;;9.98;8.98;;;11.20;99.90;;;;;;5075596;28;20133;-55
2022/10/01 01:24:03;;;;;;;11.07;8.98;;;11.10;99.90;;;;;;5075536;28;20045;-55
2022/10/01 01:26:39;;;;;;;12.30;8.80;;;11.20;99.90;;;;;;5075304;28;20505;-55
2022/10/01 01:29:30;;;;;;;11.90;9.43;;;11.10;99.90;;;;;;5075613;28;20186;-53
2022/10/01 01:32:01;;;;;;;10.70;8.98;;;11.10;99.90;;;;;;5075495;28;20455;-54
2022/10/01 01:34:30;;;;;;;13.23;9.52;;;11.10;99.90;;;;;;5075097;28;20043;-53
2022/10/01 01:37:02;;;;;;;10.25;9.18;;;11.00;99.90;;;;;;5075138;28;20036;-54
2022/10/01 01:39:31;;;;;;;12.25;9.18;;;11.00;99.90;;;;;;5075021;28;20474;-54
2022/10/01 01:41:59;;;;;;;;;;;11.10;99.90;;;;;;5075691;28;20037;-54
2022/10/01 01:44:30;;;;;;;10.25;8.30;;;11.00;99.90;;;;;;5075092;28;19916;-53
2022/10/01 01:46:57;;;;;;;9.55;8.60;;;10.90;99.90;;;;;;5074833;28;20483;-53
2022/10/01 01:49:24;;;;;;;10.15;8.80;;;11.10;99.90;;;;;;5074883;28;20548;-53
2022/10/01 01:51:52;;;;;;;10.60;8.65;;;11.00;99.90;;;;;;5074426;28;20039;-53
2022/10/01 01:54:19;;;;;;;10.88;8.73;;;11.10;99.90;;;;;;5074925;28;20090;-53
2022/10/01 01:56:45;;;;;;;10.70;8.43;;;11.10;99.90;;;;;;5074707;28;20121;-53
2022/10/01 01:59:12;;;;;;;10.77;9.15;;;11.00;99.90;;;;;;5074619;28;20430;-52
2022/10/01 02:01:40;;;;;;;10.88;8.70;;;11.10;99.90;;;;;;5074854;28;20036;-52
2022/10/01 02:04:11;;;;;;;9.57;7.90;;;11.10;99.90;;;;;;5074824;28;20068;-51
2022/10/01 02:06:52;;;;;;;9.20;7.78;;;11.00;99.90;;;;;;5074666;28;20391;-49
2022/10/01 02:09:35;;;;;;;8.05;7.25;;;11.00;99.90;;;;;;5072287;28;20040;-48
2022/10/01 02:12:18;;;;;;;8.32;7.38;;;11.10;99.90;;;;;;5072531;28;20033;-49
2022/10/01 02:15:04;;;;;;;8.10;7.30;;;11.00;99.90;;;;;;5074235;28;20048;-49
2022/10/01 02:17:32;;;;;;;8.35;7.53;;;11.10;99.90;;;;;;5074566;28;20115;-53
2022/10/01 02:20:06;;;;;;;10.23;7.03;;;11.10;99.90;;;;;;5074252;28;20119;-56
2022/10/01 02:22:39;;;;;;;11.63;7.50;;;11.10;99.90;;;;;;5074261;28;20387;-50
2022/10/01 02:25:07;;;;;;;7.32;6.63;;;11.00;99.90;;;;;;5074318;28;20040;-51
2022/10/01 02:27:40;;;;;;;9.90;6.90;;;11.00;99.90;;;;;;5074385;28;20036;-49
2022/10/01 02:30:08;;;;;;;10.65;6.93;;;11.10;99.90;;;;;;5074295;28;20425;-49
2022/10/01 02:32:36;;;;;;;8.98;7.00;;;11.00;99.90;;;;;;5074631;28;20060;-50
2022/10/01 02:35:05;;;;;;;10.85;7.50;;;11.10;99.90;;;;;;5074299;28;20040;-46
2022/10/01 02:37:33;;;;;;;13.82;7.30;;;11.00;99.90;;;;;;5073647;28;20036;-47
2022/10/01 02:40:01;;;;;;;10.57;6.93;;;10.90;99.90;;;;;;5074235;28;20508;-48
2022/10/01 02:42:28;;;;;;;6.60;5.97;;;10.90;99.90;;;;;;5074195;28;20041;-52
2022/10/01 02:45:00;;;;;;;6.28;5.68;;;11.00;99.90;;;;;;5073922;28;20506;-47
2022/10/01 02:47:35;;;;;;;6.22;5.40;;;11.00;99.90;;;;;;5074080;28;20036;-50
2022/10/01 02:50:03;;;;;;;7.40;6.20;;;11.00;99.90;;;;;;5073984;28;20076;-49
2022/10/01 02:52:40;;;;;;;7.63;6.20;;;11.10;99.90;;;;;;5074227;28;20051;-47
2022/10/01 02:55:27;;;;;;;5.57;5.00;;;11.10;99.90;;;;;;5073709;28;20048;-50
2022/10/01 02:57:54;;;;;;;5.45;4.95;;;11.10;99.90;;;;;;5073773;28;20558;-51
2022/10/01 03:00:20;;;;;;;6.55;5.68;;;11.00;99.90;;;;;;5073916;28;20123;-51
2022/10/01 03:02:46;;;;;;;6.03;5.25;;;11.00;99.90;;;;;;5073106;28;20071;-50
2022/10/01 03:05:14;;;;;;;7.72;5.82;;;11.10;99.90;;;;;;5072427;28;20045;-53
2022/10/01 03:07:40;;;;;;;6.03;5.43;;;11.10;99.90;;;;;;5073138;28;20036;-51
2022/10/01 03:10:07;;;;;;;6.45;5.38;;;11.10;99.90;;;;;;5071444;28;20098;-52
2022/10/01 03:12:34;;;;;;;5.90;4.82;;;11.00;99.90;;;;;;5072100;28;20395;-51
2022/10/01 03:14:59;;;;;;;5.80;5.22;;;11.00;99.90;;;;;;5074036;28;20040;-51
2022/10/01 03:17:25;;;;;;;6.13;5.53;;;11.10;99.90;;;;;;5073714;28;20471;-48
2022/10/01 03:19:51;;;;;;;9.07;5.00;;;11.10;99.90;;;;;;5072378;28;20045;-52
2022/10/01 03:22:21;;;;;;;6.60;5.10;;;11.10;99.90;;;;;;5073630;28;20139;-52
2022/10/01 03:24:47;;;;;;;6.50;5.45;;;11.20;99.90;;;;;;5073347;28;20513;-52
2022/10/01 03:27:13;;;;;;;7.80;4.88;;;11.10;99.90;;;;;;5073661;28;20040;-52
2022/10/01 03:29:38;;;;;;;6.65;5.07;;;11.20;99.90;;;;;;5073646;28;20047;-53
2022/10/01 03:32:04;;;;;;;5.60;4.72;;;11.10;99.90;;;;;;5073419;28;20036;-52
2022/10/01 03:34:30;;;;;;;4.93;4.43;;;11.20;99.90;;;;;;5073395;28;20032;-54
2022/10/01 03:36:55;;;;;;;6.97;5.05;;;11.30;99.90;;;;;;5073265;28;20037;-50
2022/10/01 03:39:21;;;;;;;6.32;4.43;;;11.20;99.90;;;;;;5071846;28;20375;-49
2022/10/01 03:41:46;;;;;;;4.20;3.80;;;11.20;99.90;;;;;;5071263;28;20067;-52
2022/10/01 03:44:12;;;;;;;5.60;4.50;;;11.30;99.90;;;;;;5071681;28;20036;-52
2022/10/01 03:46:38;;;;;;;4.03;3.63;;;11.20;99.90;;;;;;5072506;28;20037;-52
2022/10/01 03:49:03;;;;;;;3.47;3.17;;;11.20;99.90;;;;;;5073376;28;20049;-52
2022/10/01 03:51:30;;;;;;;4.28;3.10;;;11.30;99.90;;;;;;5073351;28;20041;-49
2022/10/01 03:53:56;;;;;;;3.50;2.90;;;11.40;99.90;;;;;;5072874;28;20103;-53
2022/10/01 03:56:23;;;;;;;2.60;2.40;;;11.40;99.90;;;;;;5072980;28;20506;-53
2022/10/01 03:58:48;;;;;;;2.70;2.50;;;11.40;99.90;;;;;;5073149;28;20049;-53
2022/10/01 04:01:14;;;;;;;2.70;2.50;;;11.40;99.90;;;;;;5073328;28;20047;-47
2022/10/01 04:03:42;;;;;;;6.85;2.95;;;11.40;99.90;;;;;;5073210;28;20491;-52
2022/10/01 04:06:07;;;;;;;2.45;2.20;;;11.40;99.90;;;;;;5072969;28;20040;-52
2022/10/01 04:08:33;;;;;;;2.60;1.88;;;11.40;99.90;;;;;;5071181;28;20101;-51
2022/10/01 04:10:59;;;;;;;2.22;2.03;;;11.50;99.90;;;;;;5071393;28;20517;-54
2022/10/01 04:13:26;;;;;;;2.80;2.00;;;11.50;99.90;;;;;;5072251;28;20044;-53
2022/10/01 04:15:52;;;;;;;3.17;2.20;;;11.50;99.90;;;;;;5076920;28;20040;-54
2022/10/01 04:18:20;;;;;;;2.67;2.22;;;11.50;99.90;;;;;;5076868;28;20044;-52
2022/10/01 04:20:46;;;;;;;2.17;1.98;;;11.40;99.90;;;;;;5076752;28;20040;-52
2022/10/01 04:23:12;;;;;;;3.58;1.88;;;11.40;99.90;;;;;;5076588;28;20487;-54
2022/10/01 04:25:38;;;;;;;2.78;2.00;;;11.40;99.90;;;;;;5076546;28;20044;-53
2022/10/01 04:28:06;;;;;;;3.65;2.28;;;11.40;99.90;;;;;;5077086;28;20044;-54
2022/10/01 04:30:35;;;;;;;1.77;1.65;;;11.40;99.90;;;;;;5076661;28;20032;-54
2022/10/01 04:33:01;;;;;;;3.90;1.90;;;11.50;99.90;;;;;;5076591;28;20042;-53
2022/10/01 04:35:27;;;;;;;2.28;2.08;;;11.50;99.90;;;;;;5076552;28;20041;-54
2022/10/01 04:37:57;;;;;;;3.45;1.80;;;11.50;99.90;;;;;;5076405;28;20036;-51
2022/10/01 04:40:23;;;;;;;2.13;1.80;;;11.50;99.90;;;;;;5076369;28;20041;-51
2022/10/01 04:42:49;;;;;;;1.92;1.80;;;11.60;99.90;;;;;;5076431;28;20040;-52
2022/10/01 04:45:15;;;;;;;7.18;2.05;;;11.50;99.90;;;;;;5076369;28;20044;-53
2022/10/01 04:47:49;;;;;;;2.47;2.17;;;11.60;99.90;;;;;;5076188;28;20032;-51
2022/10/01 04:50:15;;;;;;;2.10;1.90;;;11.50;99.90;;;;;;5076302;28;20040;-53
2022/10/01 04:52:41;;;;;;;2.45;2.10;;;11.50;99.90;;;;;;5076131;28;20380;-54
2022/10/01 04:55:07;;;;;;;3.25;2.00;;;11.50;99.90;;;;;;5075865;28;20063;-55
2022/10/01 04:57:34;;;;;;;2.50;2.17;;;11.50;99.90;;;;;;5076173;28;20041;-51
2022/10/01 05:00:00;;;;;;;2.88;2.58;;;11.60;99.90;;;;;;5075970;28;20037;-51
2022/10/01 05:02:28;;;;;;;2.92;2.70;;;11.50;99.90;;;;;;5076075;28;20077;-54
2022/10/01 05:04:54;;;;;;;3.08;2.70;;;11.60;99.90;;;;;;5075998;28;20123;-54
2022/10/01 05:07:21;;;;;;;2.70;2.50;;;11.50;99.90;;;;;;5074831;28;20119;-53
2022/10/01 05:09:47;;;;;;;3.30;2.90;;;11.60;99.90;;;;;;5075760;28;20604;-53
2022/10/01 05:12:13;;;;;;;4.68;2.63;;;11.60;99.90;;;;;;5075886;28;20044;-53
2022/10/01 05:14:39;;;;;;;3.38;2.70;;;11.60;99.90;;;;;;5075616;28;20044;-53
2022/10/01 05:17:06;;;;;;;2.78;2.50;;;11.70;99.90;;;;;;5075790;28;20386;-53
2022/10/01 05:19:32;;;;;;;3.03;2.78;;;11.70;99.90;;;;;;5075809;28;20048;-55
2022/10/01 05:21:58;;;;;;;3.25;2.95;;;11.60;99.90;;;;;;5075693;28;20117;-53
2022/10/01 05:24:24;;;;;;;5.57;3.35;;;11.50;99.90;;;;;;5075343;28;20068;-53
2022/10/01 05:26:52;;;;;;;3.05;2.75;;;11.60;99.90;;;;;;5073745;28;20055;-54
2022/10/01 05:29:18;;;;;;;4.00;3.13;;;11.60;99.90;;;;;;5075601;28;20033;-54
2022/10/01 05:31:45;;;;;;;5.10;3.03;;;11.70;99.90;;;;;;5074166;28;20040;-53
2022/10/01 05:34:11;;;;;;;3.33;2.88;;;11.60;99.90;;;;;;5075261;28;20105;-54
2022/10/01 05:36:37;;;;;;;3.00;2.67;;;11.80;99.90;;;;;;5073869;28;20037;-53
2022/10/01 05:39:03;;;;;;;3.47;3.17;;;11.70;99.90;;;;;;5073466;28;20033;-54
2022/10/01 05:41:28;;;;;;;4.40;3.13;;;11.70;99.90;;;;;;5073228;28;20033;-54
2022/10/01 05:43:54;;;;;;;5.32;3.88;;;11.70;99.90;;;;;;5073856;28;20043;-54
2022/10/01 05:46:20;;;;;;;5.32;3.83;;;11.80;99.90;;;;;;5075033;28;20471;-53
2022/10/01 05:48:48;;;;;;;5.15;4.47;;;11.80;99.90;;;;;;5075172;28;20394;-53
2022/10/01 05:51:15;;;;;;;4.72;3.85;;;11.70;99.90;;;;;;5075134;28;20432;-55
2022/10/01 05:53:40;;;;;;;5.45;4.22;;;11.90;99.90;;;;;;5075036;28;20040;-55
2022/10/01 05:56:06;;;;;;;5.25;4.60;;;11.80;99.90;;;;;;5074631;28;20060;-53
2022/10/01 05:58:32;;;;;;;5.35;4.22;;;11.80;99.90;;;;;;5074764;28;20047;-53
2022/10/01 06:00:57;;;;;;;6.22;4.22;;;11.90;99.90;;;;;;5074987;28;20445;-51
2022/10/01 06:03:25;;;;;;;6.38;4.70;;;11.80;99.90;;;;;;5074863;28;20051;-51
2022/10/01 06:05:52;;;;;;;7.53;5.18;;;11.90;99.90;;;;;;5074713;28;20044;-54
2022/10/01 06:08:18;;;;;;;8.60;5.60;;;11.90;99.90;;;;;;5074504;28;20039;-52
2022/10/01 06:10:45;;;;;;;11.15;5.90;;;12.00;99.90;;;;;;5074660;28;20040;-54
2022/10/01 06:13:16;;;;;;;6.78;5.50;;;11.90;99.90;;;;;;5074543;28;20040;-53
2022/10/01 06:15:43;;;;;;;7.15;6.38;;;12.00;99.90;;;;;;5074628;28;20040;-53
2022/10/01 06:18:10;;;;;;;9.50;6.25;;;12.00;99.90;;;;;;5074377;28;20483;-55
2022/10/01 06:20:37;;;;;;;9.43;6.70;;;12.00;99.90;;;;;;5074563;28;20139;-54
2022/10/01 06:23:10;;;;;;;8.80;7.05;;;12.10;99.90;;;;;;5074335;28;20075;-54
2022/10/01 06:25:37;;;;;;;12.30;6.85;;;12.00;99.90;;;;;;5074338;28;20045;-51
2022/10/01 06:28:04;;;;;;;9.10;6.53;;;12.20;99.90;;;;;;5074837;28;20062;-55
2022/10/01 06:30:32;;;;;;;12.02;7.00;;;12.20;99.90;;;;;;5074276;28;20477;-54
2022/10/01 06:33:09;;;;;;;11.32;6.65;;;12.20;99.90;;;;;;5073955;28;20479;-55
2022/10/01 06:35:42;;;;;;;10.30;7.05;;;12.10;99.90;;;;;;5074227;28;20052;-54
2022/10/01 06:38:08;;;;;;;13.95;7.00;;;12.00;99.90;;;;;;5074141;28;20427;-53
2022/10/01 06:40:34;;;;;;;10.20;6.72;;;12.20;99.90;;;;;;5074168;28;20451;-54
2022/10/01 06:43:00;;;;;;;10.10;7.45;;;12.20;99.90;;;;;;5074342;28;20072;-53
2022/10/01 06:45:27;;;;;;;14.40;7.90;;;12.20;99.90;;;;;;5073783;28;20510;-53
2022/10/01 06:47:58;;;;;;;8.73;7.80;;;12.10;99.90;;;;;;5073874;28;20036;-53
2022/10/01 06:50:25;;;;;;;11.73;7.97;;;12.10;99.90;;;;;;5074036;28;20040;-53
2022/10/01 06:52:51;;;;;;;11.90;7.82;;;12.20;99.90;;;;;;5074027;28;20047;-56
2022/10/01 06:55:20;;;;;;;14.23;7.93;;;12.50;99.90;;;;;;5073809;28;20137;-55
2022/10/01 06:57:46;;;;;;;13.70;8.65;;;12.40;99.90;;;;;;5073713;28;20475;-57
2022/10/01 07:00:13;;;;;;;14.07;8.60;;;12.60;99.90;;;;;;5073958;28;20040;-53
2022/10/01 07:02:39;;;;;;;14.13;9.18;;;12.70;99.90;;;;;;5073916;28;20051;-53
2022/10/01 07:05:07;;;;;;;11.98;9.07;;;12.60;99.90;;;;;;5073745;28;20079;-54
2022/10/01 07:07:36;;;;;;;11.43;8.55;;;12.60;99.90;;;;;;5073863;28;20041;-54
2022/10/01 07:10:07;;;;;;;14.90;8.00;;;12.70;99.90;;;;;;5073620;28;20032;-54
2022/10/01 07:12:35;;;;;;;11.93;7.38;;;13.20;99.90;;;;;;5073627;28;20094;-54
2022/10/01 07:15:01;;;;;;;7.97;5.85;;;13.40;99.90;;;;;;5073741;28;20363;-54
2022/10/01 07:17:27;;;;;;;13.43;7.05;;;13.60;99.90;;;;;;5073727;28;20033;-54
2022/10/01 07:19:52;;;;;;;7.45;6.00;;;13.60;99.90;;;;;;5072118;28;20509;-53
2022/10/01 07:22:18;;;;;;;11.55;6.93;;;13.60;99.90;;;;;;5073705;28;20529;-54
2022/10/01 07:24:47;;;;;;;13.55;5.53;;;13.60;99.90;;;;;;5073707;28;20395;-54
2022/10/01 07:27:13;;;;;;;10.52;5.88;;;13.50;99.90;;;;;;5073554;28;20124;-53
2022/10/01 07:29:40;;;;;;;12.38;5.40;;;14.00;99.90;;;;;;5072447;28;20036;-54
2022/10/01 07:32:08;;;;;;;12.73;4.97;;;13.80;99.90;;;;;;5073765;28;20131;-55
2022/10/01 07:34:35;;;;;;;10.82;4.78;;;14.00;99.90;;;;;;5073509;28;20043;-55
2022/10/01 07:37:02;;;;;;;9.93;4.28;;;13.80;99.90;;;;;;5073589;28;20117;-53
2022/10/01 07:39:27;;;;;;;10.63;4.30;;;13.80;99.90;;;;;;5073335;28;20037;-54
2022/10/01 07:41:53;;;;;;;8.07;3.35;;;13.70;99.90;;;;;;5073342;28;20043;-53
2022/10/01 07:44:19;;;;;;;9.25;3.35;;;14.00;99.90;;;;;;5073593;28;20082;-54
2022/10/01 07:46:46;;;;;;;11.38;3.13;;;14.30;99.90;;;;;;5073364;28;20123;-55
2022/10/01 07:49:11;;;;;;;8.85;2.58;;;14.60;99.90;;;;;;5075191;28;20052;-54
2022/10/01 07:51:37;;;;;;;7.78;2.25;;;14.70;99.90;;;;;;5077187;28;20041;-54
2022/10/01 07:54:04;;;;;;;12.57;2.83;;;15.10;99.90;;;;;;5077199;28;20036;-55
2022/10/01 07:56:30;;;;;;;8.35;1.95;;;15.60;99.90;;;;;;5076930;28;20495;-55
2022/10/01 07:58:57;;;;;;;7.00;2.83;;;15.90;99.90;;;;;;5077044;28;20128;-55
2022/10/01 08:01:23;;;;;;;7.07;2.05;;;16.10;99.90;;;;;;5077144;28;20047;-55
2022/10/01 08:03:50;;;;;;;7.68;1.60;;;16.40;99.90;;;;;;5076840;28;20043;-55
2022/10/01 08:06:17;;;;;;;7.75;1.75;;;16.70;99.90;;;;;;5076952;28;20044;-55
2022/10/01 08:08:43;;;;;;;7.53;1.60;;;17.10;99.90;;;;;;5076551;28;20450;-56
2022/10/01 08:11:12;;;;;;;8.02;1.75;;;17.30;99.90;;;;;;5074700;28;20106;-57
2022/10/01 08:13:37;;;;;;;;;;;17.50;99.90;;;;;;5076522;28;20068;-57
2022/10/01 08:16:05;;;;;;;10.48;1.67;;;17.70;99.90;;;;;;5076900;28;19967;-57
2022/10/01 08:18:31;;;;;;;12.45;2.10;;;18.10;99.90;;;;;;5076880;28;20101;-55
2022/10/01 08:21:00;;;;;;;5.43;1.20;;;18.20;99.90;;;;;;5076788;28;20072;-57
2022/10/01 08:23:27;;;;;;;7.68;1.77;;;18.30;99.90;;;;;;5077122;28;20094;-57
2022/10/01 08:26:02;;;;;;;8.10;2.17;;;18.40;99.90;;;;;;5076556;28;20481;-58
2022/10/01 08:28:28;;;;;;;10.20;1.80;;;18.70;99.90;;;;;;5076549;28;20040;-58
2022/10/01 08:30:55;;;;;;;9.93;2.28;;;18.70;99.90;;;;;;5076494;28;20041;-58
2022/10/01 08:33:21;;;;;;;8.70;1.70;;;18.60;99.90;;;;;;5076648;28;20040;-57
2022/10/01 08:35:47;;;;;;;8.10;2.30;;;18.50;99.90;;;;;;5076596;28;20075;-58
2022/10/01 08:38:13;;;;;;;10.48;2.75;;;18.60;99.90;;;;;;5076464;28;20137;-58
2022/10/01 08:40:50;;;;;;;8.30;1.80;;;18.70;99.90;;;;;;5074801;28;20040;-59
2022/10/01 08:43:29;;;;;;;12.20;2.03;;;19.00;99.90;;;;;;5073908;28;20036;-58
2022/10/01 08:45:59;;;;;;;8.55;2.08;;;18.90;99.90;;;;;;5076082;28;20041;-58
2022/10/01 08:48:34;;;;;;;8.88;1.85;;;19.10;99.90;;;;;;5076264;28;20024;-59
2022/10/01 08:51:06;;;;;;;11.52;2.75;;;19.20;99.90;;;;;;5074974;28;20040;-59
2022/10/01 08:53:40;;;;;;;12.05;1.88;;;19.00;99.90;;;;;;5076044;28;20479;-59
2022/10/01 08:56:18;;;;;;;11.38;2.40;;;19.00;99.90;;;;;;5075929;28;20060;-63
2022/10/01 08:58:49;;;;;;;9.73;2.00;;;19.00;99.90;;;;;;5076150;28;20044;-62
2022/10/01 09:01:15;;;;;;;11.15;2.33;;;18.90;99.90;;;;;;5074936;28;20040;-63
2022/10/01 09:03:41;;;;;;;12.80;2.00;;;18.80;99.90;;;;;;5076055;28;20043;-62
2022/10/01 09:06:20;;;;;;;13.45;2.15;;;18.80;99.90;;;;;;5075490;28;20059;-62
2022/10/01 09:09:17;;;;;;;11.60;2.90;;;18.70;99.90;;;;;;5075421;28;20062;-61
2022/10/01 09:12:12;;;;;;;10.68;2.42;;;18.60;99.90;;;;;;5034057;28;20056;-61
2022/10/01 09:14:50;;;;;;;10.63;2.83;;;18.60;99.90;;;;;;4955589;29;20058;-62
2022/10/01 09:17:25;;;;;;;12.27;2.67;;;18.40;99.90;;;;;;4955504;29;20055;-63
2022/10/01 09:20:09;;;;;;;10.13;2.65;;;18.50;99.90;;;;;;4955598;29;20058;-62
2022/10/01 09:22:43;;;;;;;10.18;1.90;;;18.50;99.90;;;;;;4955502;29;20530;-57
2022/10/01 09:25:13;;;;;;;9.05;2.38;;;18.50;99.90;;;;;;4955257;29;20069;-57
2022/10/01 09:27:39;;;;;;;7.40;1.83;;;18.30;99.90;;;;;;4955346;29;20118;-56
2022/10/01 09:30:15;;;;;;;10.68;2.17;;;18.30;99.90;;;;;;4939454;29;20426;-56
2022/10/01 09:32:46;;;;;;;10.77;2.78;;;18.30;99.90;;;;;;4955349;29;20529;-56
2022/10/01 09:35:40;;;;;;;6.90;1.98;;;18.10;99.90;;;;;;4955302;29;20047;-56
2022/10/01 09:38:24;;;;;;;6.45;2.00;;;18.10;99.90;;;;;;4955115;29;20054;-57
2022/10/01 09:40:57;;;;;;;12.63;2.42;;;17.90;99.90;;;;;;4954475;29;20046;-56
2022/10/01 09:43:27;;;;;;;10.18;1.73;;;17.70;99.90;;;;;;4955660;29;20363;-56
2022/10/01 09:45:53;;;;;;;8.98;2.28;;;17.60;99.90;;;;;;4955047;29;20051;-55
2022/10/01 09:48:43;;;;;;;6.85;1.60;;;17.50;99.90;;;;;;4977583;28;20488;-56
2022/10/01 09:51:15;;;;;;;7.93;2.17;;;17.50;99.90;;;;;;5036731;28;20127;-55
2022/10/01 09:54:00;;;;;;;8.48;1.90;;;17.40;99.90;;;;;;5075003;28;20043;-56
2022/10/01 09:56:29;;;;;;;7.40;2.08;;;17.30;99.90;;;;;;5074555;28;20064;-56
2022/10/01 09:59:00;;;;;;;10.93;1.60;;;17.00;99.90;;;;;;5075003;28;20048;-56
2022/10/01 10:01:42;;;;;;;7.35;1.58;;;16.70;99.90;;;;;;5074919;28;20044;-56
2022/10/01 10:04:09;;;;;;;5.90;1.20;;;16.20;99.90;;;;;;5074746;28;20045;-57
2022/10/01 10:06:34;;;;;;;3.42;1.25;;;15.90;99.90;;;;;;5074671;28;20048;-55
2022/10/01 10:09:00;;;;;;;7.10;1.70;;;15.80;99.90;;;;;;5074503;28;20044;-56
2022/10/01 10:11:31;;;;;;;7.47;1.42;;;15.60;99.90;;;;;;5074252;28;20045;-57
2022/10/01 10:13:59;;;;;;;8.57;1.63;;;15.40;99.90;;;;;;5074805;28;20032;-55
2022/10/01 10:16:27;;;;;;;7.90;1.80;;;15.20;99.90;;;;;;5074751;28;20044;-56
2022/10/01 10:19:01;;;;;;;8.05;1.52;;;15.10;99.90;;;;;;5074557;28;20051;-56
2022/10/01 10:21:30;;;;;;;9.65;1.90;;;15.00;99.90;;;;;;5074435;28;20445;-56
2022/10/01 10:23:59;;;;;;;12.30;1.40;;;14.80;99.90;;;;;;5074478;28;20040;-55
2022/10/01 10:26:37;;;;;;;5.82;1.20;;;14.70;99.90;;;;;;5074396;28;20131;-55
2022/10/01 10:29:04;;;;;;;7.25;1.73;;;14.60;99.90;;;;;;5074324;28;20102;-56
2022/10/01 10:31:43;;;;;;;6.57;1.50;;;14.50;99.90;;;;;;5074250;28;20494;-63
2022/10/01 10:34:17;;;;;;;8.38;1.60;;;14.50;99.90;;;;;;5074056;28;20486;-64
2022/10/01 10:36:44;;;;;;;7.05;1.63;;;14.30;99.90;;;;;;5074306;28;20040;-64
2022/10/01 10:39:29;;;;;;;9.15;1.10;;;14.30;99.90;;;;;;5074230;28;20032;-64
2022/10/01 10:41:57;;;;;;;5.32;1.17;;;14.30;99.90;;;;;;5073003;28;20044;-64
2022/10/01 10:44:26;;;;;;;6.28;0.98;;;14.30;99.90;;;;;;5074514;28;20044;-64
2022/10/01 10:46:58;;;;;;;4.25;1.05;;;14.30;99.90;;;;;;5073866;28;20502;-64
2022/10/01 10:49:30;;;;;;;3.58;0.90;;;14.30;99.90;;;;;;5074015;28;20146;-64
2022/10/01 10:52:00;;;;;;;4.45;1.02;;;14.30;99.90;;;;;;5074127;28;20036;-64
2022/10/01 10:54:32;;;;;;;6.07;0.88;;;14.30;99.90;;;;;;5073913;28;20036;-64
2022/10/01 10:57:01;;;;;;;4.85;1.10;;;14.30;99.90;;;;;;5072145;28;20052;-55
2022/10/01 10:59:27;;;;;;;5.95;1.45;;;14.30;99.90;;;;;;5073911;28;20052;-55
2022/10/01 11:01:53;;;;;;;5.85;1.27;;;14.30;99.90;;;;;;5073727;28;20441;-56
2022/10/01 11:04:27;;;;;;;5.85;1.27;;;14.40;99.90;;;;;;5072521;28;20040;-55
2022/10/01 11:06:55;;;;;;;8.02;1.20;;;14.40;99.90;;;;;;5073644;28;20094;-55
2022/10/01 11:09:25;;;;;;;3.53;0.82;;;14.30;99.90;;;;;;5072233;28;20032;-55
2022/10/01 11:12:17;;;;;;;5.95;1.20;;;14.30;99.90;;;;;;5073829;28;20094;-56
2022/10/01 11:15:12;;;;;;;6.15;1.65;;;14.40;99.90;;;;;;5073796;28;20446;-56
2022/10/01 11:18:08;;;;;;;6.13;1.13;;;14.30;99.90;;;;;;5031427;28;20049;-55
2022/10/01 11:20:39;;;;;;;7.68;1.85;;;14.50;99.90;;;;;;4953495;29;20502;-56
2022/10/01 11:23:26;;;;;;;4.57;1.30;;;14.50;99.90;;;;;;4952922;29;20062;-56
2022/10/01 11:26:21;;;;;;;5.28;1.23;;;14.80;99.90;;;;;;4936871;29;20513;-56
2022/10/01 11:29:10;;;;;;;4.47;1.02;;;15.00;99.90;;;;;;4951451;29;20051;-56
2022/10/01 11:31:51;;;;;;;7.05;1.90;;;15.30;99.90;;;;;;4953374;29;20074;-63
2022/10/01 11:34:36;;;;;;;4.95;1.13;;;15.60;99.90;;;;;;4953171;29;20144;-63
2022/10/01 11:37:14;;;;;;;5.82;1.52;;;15.80;99.90;;;;;;4953268;29;20129;-63
2022/10/01 11:39:43;;;;;;;9.57;1.20;;;15.90;99.90;;;;;;4952787;29;20050;-63
2022/10/01 11:42:13;;;;;;;;;;;16.10;99.90;;;;;;4953966;29;20114;-63
2022/10/01 11:44:50;;;;;;;9.73;1.30;;;16.20;99.90;;;;;;4953173;29;19982;-64
2022/10/01 11:47:24;;;;;;;7.45;1.50;;;16.20;99.90;;;;;;4953139;29;20051;-65
2022/10/01 11:50:02;;;;;;;8.65;1.63;;;16.40;99.90;;;;;;4953211;29;20402;-63
2022/10/01 11:52:36;;;;;;;7.00;1.42;;;16.40;99.90;;;;;;4937457;29;20054;-64
2022/10/01 12:01:13;;;;;;;9.40;1.83;;;16.10;99.90;;;;;;5072273;28;20037;-64
2022/10/01 12:03:50;;;;;;;8.43;1.83;;;16.20;99.90;;;;;;5073246;28;20115;-64
2022/10/01 12:06:19;;;;;;;13.88;2.22;;;16.10;99.90;;;;;;5072797;28;20508;-63
2022/10/01 12:08:53;;;;;;;9.10;1.83;;;16.10;99.90;;;;;;5073171;28;20045;-64
2022/10/01 12:11:35;;;;;;;14.73;2.45;;;16.10;99.90;;;;;;5072922;28;20429;-64
2022/10/01 12:14:08;;;;;;;13.52;2.78;;;16.10;99.90;;;;;;5072915;28;20560;-64
2022/10/01 12:16:38;;;;;;;7.85;1.88;;;16.10;99.90;;;;;;5073184;28;20058;-64
2022/10/01 12:19:16;;;;;;;9.63;1.90;;;16.10;99.90;;;;;;5071989;28;20060;-64
2022/10/01 12:21:55;;;;;;;14.35;2.13;;;16.10;99.90;;;;;;5073112;28;20040;-64
2022/10/01 12:24:29;;;;;;;14.82;2.28;;;16.10;99.90;;;;;;5073111;28;20182;-63
2022/10/01 12:26:55;;;;;;;7.70;2.03;;;16.30;99.90;;;;;;5073051;28;20400;-63
2022/10/01 12:29:41;;;;;;;10.23;2.45;;;16.40;99.90;;;;;;5073005;28;20044;-64
2022/10/01 12:32:36;;;;;;;8.50;2.15;;;16.50;99.90;;;;;;5072777;28;20041;-63
2022/10/01 12:35:46;;;;;;;8.73;1.52;;;16.60;99.90;;;;;;5074426;28;20037;-63
2022/10/01 12:38:29;;;;;;;7.75;1.30;;;16.40;99.90;;;;;;5075817;28;20391;-63
2022/10/01 12:41:22;;;;;;;9.63;1.80;;;16.50;99.90;;;;;;5074822;28;20033;-63
2022/10/01 12:43:53;;;;;;;9.25;2.00;;;16.70;99.90;;;;;;5073622;28;20044;-63
2022/10/01 12:46:24;;;;;;;6.90;1.20;;;17.00;99.90;;;;;;5075708;28;20037;-63
2022/10/01 12:49:14;;;;;;;11.25;1.63;;;17.10;99.90;;;;;;5076386;28;20044;-55
2022/10/01 12:51:51;;;;;;;14.60;2.83;;;17.10;99.90;;;;;;5076243;28;20040;-55
2022/10/01 12:54:35;;;;;;;7.95;1.40;;;17.20;99.90;;;;;;5076310;28;20102;-56
2022/10/01 12:57:33;;;;;;;10.25;2.42;;;17.00;99.90;;;;;;5075657;28;20061;-55
2022/10/01 13:00:09;;;;;;;11.65;1.77;;;16.80;99.90;;;;;;5076136;28;20040;-65
2022/10/01 13:03:14;;;;;;;7.72;1.38;;;16.60;99.90;;;;;;5076058;28;20036;-64
2022/10/01 13:05:48;;;;;;;6.53;1.25;;;16.20;99.90;;;;;;5034350;28;20107;-64
2022/10/01 13:08:16;;;;;;;5.55;1.65;;;15.90;99.90;;;;;;5017338;28;20152;-56